Time;durP1;ratioP1;P1;durP2;ratioP2;P2;SDS_P1;SDS_P2;PMS_P1;PMS_P2;Temp;Humidity;BMP_temperature;BMP_pressure;BME280_temperature;BME280_humidity;BME280_pressure;Samples;Min_cycle;Max_cycle;Signal;HPM_P1;HPM_P2
2022/04/23 00:01:44;;;;;;;8.50;6.40;;;9.20;99.90;;;;;;5112460;28;20434;-53
2022/04/23 00:04:11;;;;;;;8.70;5.10;;;9.20;99.90;;;;;;5108289;28;21000;-53
2022/04/23 00:06:38;;;;;;;11.93;5.67;;;9.20;99.90;;;;;;5110864;28;20456;-53
2022/04/23 00:09:04;;;;;;;10.07;6.20;;;9.20;99.90;;;;;;5107869;28;20488;-53
2022/04/23 00:11:30;;;;;;;9.03;5.70;;;9.10;99.90;;;;;;5111508;28;20430;-54
2022/04/23 00:13:56;;;;;;;9.40;6.37;;;9.00;99.90;;;;;;5105108;28;20941;-54
2022/04/23 00:16:24;;;;;;;7.90;6.03;;;8.90;99.90;;;;;;5103198;28;20983;-53
2022/04/23 00:18:51;;;;;;;8.60;5.97;;;8.90;99.90;;;;;;5107677;28;20578;-54
2022/04/23 00:21:18;;;;;;;8.17;5.87;;;8.80;99.90;;;;;;5106465;28;20920;-53
2022/04/23 00:23:50;;;;;;;11.60;6.10;;;8.70;99.90;;;;;;5109029;28;20443;-54
2022/04/23 00:26:16;;;;;;;10.50;6.53;;;8.70;99.90;;;;;;5105848;28;20423;-54
2022/04/23 00:28:41;;;;;;;10.70;6.43;;;8.60;99.90;;;;;;5110716;28;20518;-53
2022/04/23 00:31:07;;;;;;;12.80;6.20;;;8.50;99.90;;;;;;5109384;28;20434;-55
2022/04/23 00:33:37;;;;;;;7.83;6.43;;;8.50;99.90;;;;;;5104801;28;20228;-54
2022/04/23 00:36:09;;;;;;;8.27;6.70;;;8.40;99.90;;;;;;5109609;28;20188;-54
2022/04/23 00:38:36;;;;;;;8.27;6.33;;;8.40;99.90;;;;;;5099042;28;20489;-54
2022/04/23 00:41:02;;;;;;;7.50;6.07;;;8.40;99.90;;;;;;5104179;28;20422;-54
2022/04/23 00:43:30;;;;;;;9.90;6.40;;;8.40;99.90;;;;;;5105647;28;20447;-53
2022/04/23 00:45:57;;;;;;;7.93;6.10;;;8.20;99.90;;;;;;5102637;28;20530;-53
2022/04/23 00:48:26;;;;;;;8.87;6.90;;;8.20;99.90;;;;;;5101369;28;20440;-50
2022/04/23 00:50:53;;;;;;;8.93;7.10;;;8.10;99.90;;;;;;5102627;28;21267;-50
2022/04/23 00:53:19;;;;;;;12.23;7.73;;;8.10;99.90;;;;;;5103260;28;20790;-50
2022/04/23 00:55:46;;;;;;;9.60;6.60;;;8.00;99.90;;;;;;5109318;28;20436;-50
2022/04/23 00:58:14;;;;;;;11.00;7.03;;;7.90;1.00;;;;;;5110838;28;20435;-50
2022/04/23 01:00:41;;;;;;;11.40;7.17;;;7.90;1.00;;;;;;5104698;28;20938;-50
2022/04/23 01:03:07;;;;;;;11.50;7.43;;;7.80;1.00;;;;;;5103833;28;20916;-50
2022/04/23 01:05:33;;;;;;;9.07;7.30;;;7.80;1.00;;;;;;5094813;28;20478;-50
2022/04/23 01:08:02;;;;;;;13.67;8.80;;;7.80;1.00;;;;;;5099790;28;20438;-50
2022/04/23 01:10:29;;;;;;;11.90;8.20;;;7.70;1.00;;;;;;5106743;28;20524;-50
2022/04/23 01:12:54;;;;;;;12.20;8.23;;;7.60;1.00;;;;;;5106169;28;20951;-50
2022/04/23 01:15:21;;;;;;;10.90;8.67;;;7.60;1.00;;;;;;5109679;28;20429;-50
2022/04/23 01:17:49;;;;;;;11.37;8.77;;;7.60;1.00;;;;;;5103847;28;20231;-50
2022/04/23 01:20:15;;;;;;;15.13;9.00;;;7.70;1.00;;;;;;5101858;28;20472;-50
2022/04/23 01:22:43;;;;;;;14.57;9.00;;;7.70;1.00;;;;;;5109565;28;20537;-50
2022/04/23 01:25:12;;;;;;;13.20;8.27;;;7.70;1.00;;;;;;5110985;28;20441;-50
2022/04/23 01:27:42;;;;;;;14.50;8.27;;;7.60;1.00;;;;;;5101286;28;21171;-50
2022/04/23 01:30:10;;;;;;;16.73;9.07;;;7.50;1.00;;;;;;5095912;28;20445;-50
2022/04/23 01:32:36;;;;;;;11.77;9.20;;;7.40;1.00;;;;;;5092479;28;20478;-50
2022/04/23 01:35:01;;;;;;;12.67;8.77;;;7.40;1.00;;;;;;5106065;28;20437;-50
2022/04/23 01:37:27;;;;;;;17.07;9.80;;;7.40;1.00;;;;;;5108803;28;20803;-50
2022/04/23 01:39:52;;;;;;;13.53;9.23;;;7.30;1.00;;;;;;5106061;28;20839;-50
2022/04/23 01:42:19;;;;;;;17.80;10.13;;;7.30;1.00;;;;;;5107161;28;20904;-50
2022/04/23 01:44:46;;;;;;;15.50;10.33;;;7.20;1.00;;;;;;5103745;28;20631;-50
2022/04/23 01:47:11;;;;;;;14.60;10.33;;;7.10;1.00;;;;;;5082514;28;20453;-50
2022/04/23 01:49:37;;;;;;;17.70;10.40;;;7.20;1.00;;;;;;5104667;28;20492;-50
2022/04/23 01:52:03;;;;;;;17.70;10.77;;;7.10;1.00;;;;;;5102738;28;20192;-51
2022/04/23 01:54:28;;;;;;;19.13;10.20;;;7.20;1.00;;;;;;5104671;28;20307;-50
2022/04/23 01:56:57;;;;;;;14.40;10.00;;;7.20;1.00;;;;;;5106789;28;20228;-50
2022/04/23 01:59:23;;;;;;;20.50;12.50;;;7.10;1.00;;;;;;5103693;28;20195;-50
2022/04/23 02:01:49;;;;;;;20.77;10.37;;;7.10;1.00;;;;;;5109486;28;20826;-50
2022/04/23 02:04:14;;;;;;;20.00;11.50;;;7.00;1.00;;;;;;5108409;28;20283;-50
2022/04/23 02:06:40;;;;;;;18.10;10.63;;;6.90;1.00;;;;;;5109743;28;20533;-50
2022/04/23 02:09:05;;;;;;;17.80;10.40;;;7.00;1.00;;;;;;5101053;28;20204;-50
2022/04/23 02:11:31;;;;;;;18.17;10.77;;;6.90;1.00;;;;;;5109052;28;20212;-50
2022/04/23 02:13:57;;;;;;;17.00;11.40;;;6.90;1.00;;;;;;5092825;28;20228;-50
2022/04/23 02:16:22;;;;;;;20.57;13.27;;;6.90;1.00;;;;;;5104165;28;20215;-50
2022/04/23 02:18:48;;;;;;;22.57;12.77;;;7.00;1.00;;;;;;5109647;28;20232;-50
2022/04/23 02:21:13;;;;;;;19.43;12.57;;;6.90;1.00;;;;;;5106932;28;20208;-50
2022/04/23 02:23:39;;;;;;;19.00;12.37;;;6.90;1.00;;;;;;5108894;28;20667;-50
2022/04/23 02:26:05;;;;;;;21.53;12.67;;;6.90;1.00;;;;;;5096736;28;20320;-50
2022/04/23 02:28:31;;;;;;;23.10;13.73;;;6.80;1.00;;;;;;5109642;28;20502;-50
2022/04/23 02:30:57;;;;;;;24.33;12.13;;;6.70;1.00;;;;;;5104888;28;20199;-51
2022/04/23 02:33:23;;;;;;;27.67;14.57;;;6.60;18.90;;;;;;5088291;28;20458;-50
2022/04/23 02:35:50;;;;;;;22.70;14.07;;;6.60;99.90;;;;;;5108259;28;20210;-50
2022/04/23 02:38:17;;;;;;;24.20;14.47;;;6.60;99.90;;;;;;5105179;28;20435;-50
2022/04/23 02:40:43;;;;;;;22.63;13.40;;;6.60;99.90;;;;;;5106240;28;20972;-50
2022/04/23 02:43:09;;;;;;;27.97;13.83;;;6.60;99.90;;;;;;5107384;28;20446;-50
2022/04/23 02:45:37;;;;;;;23.23;14.40;;;6.50;99.90;;;;;;5104293;28;20520;-51
2022/04/23 02:48:02;;;;;;;26.53;14.30;;;6.50;99.90;;;;;;5108709;28;20446;-50
2022/04/23 02:50:34;;;;;;;23.13;14.57;;;6.50;99.90;;;;;;5098833;28;20433;-50
2022/04/23 02:53:00;;;;;;;26.90;14.47;;;6.50;99.90;;;;;;5095361;28;20796;-51
2022/04/23 02:55:27;;;;;;;25.67;14.83;;;6.50;99.90;;;;;;5094275;28;20510;-50
2022/04/23 02:57:53;;;;;;;27.87;15.33;;;6.60;99.90;;;;;;5096378;28;20257;-50
2022/04/23 03:00:19;;;;;;;24.23;14.67;;;6.50;99.90;;;;;;5103469;28;20434;-50
2022/04/23 03:02:47;;;;;;;27.40;15.27;;;6.40;99.90;;;;;;5100699;28;21044;-51
2022/04/23 03:05:16;;;;;;;31.57;15.93;;;6.40;99.90;;;;;;5105192;28;20527;-50
2022/04/23 03:07:43;;;;;;;28.77;16.13;;;6.40;99.90;;;;;;5103210;28;20812;-50
2022/04/23 03:10:11;;;;;;;26.43;15.80;;;6.40;99.90;;;;;;5107454;28;20513;-51
2022/04/23 03:12:38;;;;;;;28.47;14.83;;;6.40;99.90;;;;;;5094810;28;21057;-50
2022/04/23 03:15:05;;;;;;;26.20;15.40;;;6.40;99.90;;;;;;5103488;28;20430;-50
2022/04/23 03:17:31;;;;;;;25.57;15.57;;;6.40;99.90;;;;;;5104458;28;20481;-54
2022/04/23 03:19:57;;;;;;;26.60;16.27;;;6.40;99.90;;;;;;5111214;28;20932;-54
2022/04/23 03:22:23;;;;;;;24.90;16.03;;;6.40;99.90;;;;;;5107901;28;20433;-54
2022/04/23 03:24:48;;;;;;;28.30;16.07;;;6.40;99.90;;;;;;5112980;28;21052;-54
2022/04/23 03:27:15;;;;;;;28.80;17.83;;;6.40;99.90;;;;;;5098984;28;20710;-54
2022/04/23 03:29:40;;;;;;;33.83;17.30;;;6.30;99.90;;;;;;5107808;28;20329;-54
2022/04/23 03:32:06;;;;;;;33.30;17.80;;;6.30;1.00;;;;;;5109095;28;20512;-54
2022/04/23 03:34:32;;;;;;;34.57;18.60;;;6.30;1.00;;;;;;5112886;28;20243;-54
2022/04/23 03:36:57;;;;;;;30.60;17.00;;;6.30;1.00;;;;;;5107650;28;20439;-54
2022/04/23 03:39:23;;;;;;;27.70;17.53;;;6.30;1.00;;;;;;5107097;28;20207;-54
2022/04/23 03:41:49;;;;;;;38.53;20.77;;;6.20;1.00;;;;;;5110605;28;20211;-57
2022/04/23 03:44:14;;;;;;;33.20;19.23;;;6.20;1.00;;;;;;5112602;28;20196;-55
2022/04/23 03:46:40;;;;;;;37.87;20.10;;;6.20;1.00;;;;;;5088476;28;20200;-58
2022/04/23 03:49:07;;;;;;;37.13;20.00;;;6.20;1.00;;;;;;5090551;28;20224;-54
2022/04/23 03:51:33;;;;;;;34.93;20.43;;;6.10;1.00;;;;;;5083509;28;20209;-54
2022/04/23 03:53:59;;;;;;;38.17;20.90;;;6.10;1.00;;;;;;5108744;28;20523;-54
2022/04/23 03:56:25;;;;;;;34.70;19.50;;;6.10;1.00;;;;;;5102786;28;20543;-55
2022/04/23 03:58:51;;;;;;;33.90;20.37;;;6.10;1.00;;;;;;5105952;28;20947;-55
2022/04/23 04:01:17;;;;;;;34.30;19.77;;;6.10;1.00;;;;;;5108240;28;20184;-54
2022/04/23 04:03:43;;;;;;;36.37;21.17;;;6.00;40.60;;;;;;5101705;28;20457;-54
2022/04/23 04:06:09;;;;;;;38.47;20.10;;;6.00;99.90;;;;;;5097465;28;20192;-54
2022/04/23 04:08:35;;;;;;;38.90;21.07;;;6.00;92.40;;;;;;5101770;28;20532;-53
2022/04/23 04:11:00;;;;;;;36.73;21.10;;;6.00;99.90;;;;;;5108546;28;20844;-54
2022/04/23 04:13:27;;;;;;;41.20;23.13;;;6.00;99.90;;;;;;5103835;28;20216;-54
2022/04/23 04:15:52;;;;;;;41.53;22.20;;;5.90;99.90;;;;;;5085043;28;20218;-54
2022/04/23 04:18:19;;;;;;;44.67;21.63;;;6.00;99.90;;;;;;5102083;28;21072;-55
2022/04/23 04:20:48;;;;;;;39.27;21.40;;;5.90;99.90;;;;;;5112400;28;20208;-55
2022/04/23 04:23:14;;;;;;;37.83;21.63;;;6.00;1.00;;;;;;5106235;28;20442;-54
2022/04/23 04:25:40;;;;;;;42.00;22.40;;;5.90;99.90;;;;;;5107806;28;20449;-56
2022/04/23 04:28:06;;;;;;;39.83;23.10;;;5.90;1.00;;;;;;5100517;28;20452;-54
2022/04/23 04:31:46;;;;;;;40.93;23.47;;;6.00;1.00;;;;;;5106224;28;20189;-54
2022/04/23 04:33:17;;;;;;;44.80;22.13;;;6.10;1.00;;;;;;5109912;28;20465;-54
2022/04/23 04:35:42;;;;;;;39.50;22.40;;;6.10;99.90;;;;;;5105177;28;20927;-54
2022/04/23 04:38:08;;;;;;;38.20;21.70;;;6.00;99.90;;;;;;5109965;28;20218;-54
2022/04/23 04:40:34;;;;;;;43.43;22.13;;;6.10;1.00;;;;;;5109111;27;20592;-55
2022/04/23 04:42:59;;;;;;;40.63;21.77;;;6.10;99.90;;;;;;5110595;27;20191;-54
2022/04/23 04:45:25;;;;;;;33.73;21.10;;;6.10;99.90;;;;;;5106407;28;20197;-54
2022/04/23 04:47:50;;;;;;;44.80;23.33;;;6.10;99.90;;;;;;5109346;28;20321;-54
2022/04/23 04:50:17;;;;;;;39.90;22.33;;;6.10;99.90;;;;;;5104532;28;20211;-51
2022/04/23 04:52:43;;;;;;;43.07;22.83;;;6.10;1.00;;;;;;5102786;27;20205;-51
2022/04/23 04:55:09;;;;;;;37.40;22.27;;;6.10;1.00;;;;;;5107338;28;20437;-52
2022/04/23 04:57:34;;;;;;;41.97;21.90;;;6.10;1.00;;;;;;5086863;28;20280;-51
2022/04/23 05:00:00;;;;;;;38.57;22.97;;;6.10;1.00;;;;;;5102889;28;20488;-50
2022/04/23 05:02:25;;;;;;;47.60;23.50;;;6.20;1.00;;;;;;5110528;27;20207;-50
2022/04/23 05:04:51;;;;;;;39.73;22.47;;;6.30;1.00;;;;;;5110040;28;20276;-50
2022/04/23 05:07:17;;;;;;;41.23;22.37;;;6.40;99.90;;;;;;5103756;28;20196;-50
2022/04/23 05:09:42;;;;;;;44.93;23.63;;;6.40;99.90;;;;;;5086365;28;20184;-50
2022/04/23 05:12:09;;;;;;;41.53;22.33;;;6.50;99.90;;;;;;5104561;28;20192;-50
2022/04/23 05:14:35;;;;;;;38.50;22.60;;;6.50;99.90;;;;;;5110777;28;20311;-50
2022/04/23 05:17:00;;;;;;;40.67;22.63;;;6.50;99.90;;;;;;5096246;28;21025;-50
2022/04/23 05:19:25;;;;;;;33.33;20.27;;;6.60;99.90;;;;;;5095352;28;20193;-51
2022/04/23 05:21:51;;;;;;;37.30;21.23;;;6.70;99.90;;;;;;5104333;27;20184;-50
2022/04/23 05:24:17;;;;;;;46.00;23.23;;;6.80;99.90;;;;;;5106925;27;20222;-53
2022/04/23 05:26:42;;;;;;;35.97;22.37;;;6.90;1.00;;;;;;5105294;27;20320;-50
2022/04/23 05:29:08;;;;;;;42.50;22.00;;;7.00;1.00;;;;;;5107642;28;20203;-50
2022/04/23 05:31:33;;;;;;;37.83;21.07;;;7.00;99.90;;;;;;5102885;28;20195;-50
2022/04/23 05:33:59;;;;;;;39.70;21.40;;;7.10;1.00;;;;;;5097882;27;20235;-50
2022/04/23 05:36:25;;;;;;;45.27;22.30;;;7.20;99.90;;;;;;5099323;28;20221;-50
2022/04/23 05:38:50;;;;;;;35.67;20.87;;;7.30;99.90;;;;;;5107782;27;20434;-50
2022/04/23 05:41:16;;;;;;;34.67;21.30;;;7.40;99.90;;;;;;5101603;28;20187;-50
2022/04/23 05:43:41;;;;;;;38.20;20.73;;;7.50;99.90;;;;;;5100766;27;20753;-50
2022/04/23 05:46:07;;;;;;;34.93;20.63;;;7.60;65.80;;;;;;5082111;28;20192;-52
2022/04/23 05:48:36;;;;;;;34.67;20.03;;;7.80;63.50;;;;;;5110728;27;20313;-50
2022/04/23 05:51:01;;;;;;;34.23;19.20;;;8.00;3.30;;;;;;5101478;28;20438;-50
2022/04/23 05:53:27;;;;;;;34.67;20.57;;;8.20;1.00;;;;;;5101054;27;21002;-50
2022/04/23 05:55:56;;;;;;;28.70;18.60;;;8.50;1.00;;;;;;5095725;28;20191;-50
2022/04/23 05:58:22;;;;;;;25.23;17.00;;;8.80;1.00;;;;;;5094446;28;20181;-50
2022/04/23 06:00:48;;;;;;;31.97;18.30;;;9.00;99.90;;;;;;5104179;28;20445;-50
2022/04/23 06:03:14;;;;;;;28.63;17.27;;;9.30;1.00;;;;;;5106291;28;20196;-50
2022/04/23 06:05:39;;;;;;;25.17;16.90;;;9.60;99.90;;;;;;5105147;27;20339;-50
2022/04/23 06:08:05;;;;;;;25.70;17.43;;;9.90;99.90;;;;;;5109459;28;20524;-50
2022/04/23 06:10:30;;;;;;;27.40;16.63;;;10.10;99.90;;;;;;5108227;28;20219;-50
2022/04/23 06:12:56;;;;;;;22.13;15.97;;;10.30;99.90;;;;;;5101097;27;20211;-50
2022/04/23 06:15:21;;;;;;;18.80;14.47;;;10.50;99.90;;;;;;5105724;28;20212;-50
2022/04/23 06:17:47;;;;;;;19.63;13.60;;;10.60;99.90;;;;;;5096315;28;20220;-50
2022/04/23 06:20:13;;;;;;;19.67;14.30;;;10.80;99.90;;;;;;5100457;28;20181;-50
2022/04/23 06:22:38;;;;;;;22.10;15.27;;;10.90;99.90;;;;;;5104102;28;20657;-50
2022/04/23 06:25:06;;;;;;;20.07;14.50;;;11.10;99.90;;;;;;5108293;28;20716;-50
2022/04/23 06:27:31;;;;;;;21.40;14.30;;;11.20;99.90;;;;;;5102533;28;20177;-51
2022/04/23 06:29:58;;;;;;;16.27;13.00;;;11.40;99.90;;;;;;5105084;28;20939;-50
2022/04/23 06:32:23;;;;;;;18.67;12.90;;;11.60;99.90;;;;;;5104421;28;20620;-50
2022/04/23 06:34:49;;;;;;;17.97;13.23;;;11.70;99.90;;;;;;5101489;28;20468;-50
2022/04/23 06:37:18;;;;;;;18.53;13.20;;;11.90;99.90;;;;;;5097592;28;20593;-49
2022/04/23 06:39:44;;;;;;;16.80;12.97;;;12.00;99.90;;;;;;5101463;27;20197;-50
2022/04/23 06:42:09;;;;;;;17.03;12.50;;;12.00;99.90;;;;;;5105199;28;20450;-50
2022/04/23 06:44:35;;;;;;;22.13;12.50;;;12.20;99.90;;;;;;5098004;28;20193;-50
2022/04/23 06:47:01;;;;;;;20.43;13.27;;;12.40;99.90;;;;;;5095102;28;20204;-50
2022/04/23 06:49:27;;;;;;;17.93;12.10;;;12.60;99.90;;;;;;5094805;28;20227;-49
2022/04/23 06:51:54;;;;;;;16.17;11.60;;;12.70;99.90;;;;;;5104909;28;20188;-49
2022/04/23 06:54:20;;;;;;;15.50;11.70;;;13.00;99.90;;;;;;5113245;28;20815;-49
2022/04/23 06:56:45;;;;;;;17.13;11.67;;;13.30;99.90;;;;;;5113058;28;20433;-50
2022/04/23 06:59:11;;;;;;;14.53;11.90;;;13.50;99.90;;;;;;5113575;28;20184;-49
2022/04/23 07:01:36;;;;;;;13.13;11.57;;;13.80;99.90;;;;;;5106801;27;20203;-49
2022/04/23 07:04:02;;;;;;;13.33;11.10;;;13.80;99.90;;;;;;5108394;28;20199;-49
2022/04/23 07:06:27;;;;;;;14.43;11.30;;;13.90;99.90;;;;;;5105568;28;20200;-49
2022/04/23 07:08:53;;;;;;;17.60;11.93;;;14.10;99.90;;;;;;5111969;28;20189;-49
2022/04/23 07:11:18;;;;;;;14.90;11.97;;;14.20;99.90;;;;;;5110774;28;20220;-49
2022/04/23 07:13:44;;;;;;;18.20;11.10;;;14.50;99.90;;;;;;5109811;28;20552;-49
2022/04/23 07:16:11;;;;;;;12.50;10.20;;;14.80;99.90;;;;;;5095252;28;20193;-50
2022/04/23 07:18:39;;;;;;;14.53;10.90;;;15.00;99.90;;;;;;5097507;28;20259;-49
2022/04/23 07:21:05;;;;;;;14.83;10.50;;;15.20;99.90;;;;;;5113382;28;20760;-50
2022/04/23 07:26:15;;;;;;;11.20;10.00;;;15.40;99.90;;;;;;5106726;28;20203;-49
2022/04/23 07:28:40;;;;;;;12.10;9.83;;;15.60;99.90;;;;;;5094928;28;20434;-49
2022/04/23 07:31:06;;;;;;;11.30;9.70;;;15.80;99.90;;;;;;5094679;28;20309;-49
2022/04/23 07:39:00;;;;;;;10.30;8.80;;;16.30;99.90;;;;;;5112118;28;20457;-50
2022/04/23 07:41:27;;;;;;;10.50;7.50;;;16.20;99.90;;;;;;5102364;28;20441;-49
2022/04/23 07:43:53;;;;;;;8.40;7.47;;;16.40;99.90;;;;;;5114160;28;20187;-50
2022/04/23 07:46:18;;;;;;;8.77;7.23;;;16.40;99.90;;;;;;5094791;28;20422;-49
2022/04/23 07:48:44;;;;;;;7.97;7.10;;;16.60;99.90;;;;;;5098473;28;20197;-51
2022/04/23 07:51:10;;;;;;;9.60;7.13;;;16.70;99.90;;;;;;5095630;28;20228;-50
2022/04/23 07:53:35;;;;;;;8.40;7.40;;;16.70;99.90;;;;;;5098434;28;20251;-49
2022/04/23 07:56:01;;;;;;;8.50;6.70;;;16.90;99.90;;;;;;5094205;28;20434;-50
2022/04/23 07:58:26;;;;;;;8.73;7.20;;;17.00;99.90;;;;;;5107646;28;20184;-49
2022/04/23 08:00:52;;;;;;;8.07;7.27;;;17.30;99.90;;;;;;5098008;28;20192;-49
2022/04/23 08:03:17;;;;;;;8.00;7.20;;;17.60;99.90;;;;;;5107910;28;20527;-49
2022/04/23 08:05:43;;;;;;;7.83;7.03;;;17.90;99.90;;;;;;5075908;28;20656;-49
2022/04/23 08:08:08;;;;;;;8.53;7.27;;;17.90;99.90;;;;;;5099667;28;20233;-49
2022/04/23 08:10:34;;;;;;;6.70;6.10;;;17.80;99.90;;;;;;5111842;28;20188;-49
2022/04/23 08:13:00;;;;;;;8.30;7.13;;;18.00;99.90;;;;;;5102086;28;20221;-49
2022/04/23 08:15:26;;;;;;;7.03;5.73;;;18.20;99.90;;;;;;5111390;28;20192;-49
2022/04/23 08:17:52;;;;;;;6.80;6.10;;;18.40;99.90;;;;;;5103788;28;20471;-49
2022/04/23 08:20:18;;;;;;;7.10;6.40;;;18.70;99.90;;;;;;5092903;28;20189;-49
2022/04/23 08:22:43;;;;;;;9.47;6.67;;;18.90;99.90;;;;;;5095480;28;20424;-49
2022/04/23 08:25:09;;;;;;;9.57;6.60;;;19.00;99.90;;;;;;5095844;28;20707;-50
2022/04/23 08:27:51;;;;;;;7.07;6.47;;;19.00;99.90;;;;;;5105686;28;20200;-49
2022/04/23 08:30:36;;;;;;;8.50;6.47;;;19.20;99.90;;;;;;5111261;28;20237;-50
2022/04/23 08:33:03;;;;;;;6.30;5.70;;;19.20;99.90;;;;;;5104771;28;20463;-50
2022/04/23 08:35:28;;;;;;;6.67;5.73;;;19.10;99.90;;;;;;5108872;28;20438;-50
2022/04/23 08:37:54;;;;;;;6.87;6.20;;;19.10;99.90;;;;;;5097152;28;21075;-50
2022/04/23 08:40:20;;;;;;;6.23;5.63;;;19.20;99.90;;;;;;5110323;28;20249;-50
2022/04/23 08:42:46;;;;;;;6.23;5.63;;;19.50;99.90;;;;;;5104353;28;20195;-49
2022/04/23 08:45:12;;;;;;;7.60;6.80;;;19.90;99.90;;;;;;5093743;28;20424;-50
2022/04/23 08:47:44;;;;;;;7.30;6.60;;;19.60;99.90;;;;;;5104863;28;20192;-50
2022/04/23 08:50:10;;;;;;;7.33;5.80;;;19.30;99.90;;;;;;5108403;28;20458;-50
2022/04/23 08:52:36;;;;;;;6.80;6.10;;;19.30;99.90;;;;;;5104042;28;21327;-50
2022/04/23 08:55:04;;;;;;;6.37;5.77;;;19.30;99.90;;;;;;5092155;28;21105;-50
2022/04/23 08:57:30;;;;;;;6.30;5.70;;;19.60;99.90;;;;;;5075081;28;20434;-50
2022/04/23 08:59:56;;;;;;;7.27;5.73;;;19.90;99.90;;;;;;5092044;28;20408;-50
2022/04/23 09:02:26;;;;;;;6.03;5.40;;;20.20;99.90;;;;;;5108108;28;20807;-50
2022/04/23 09:04:53;;;;;;;6.20;5.60;;;20.30;99.90;;;;;;5095759;28;20418;-50
2022/04/23 09:07:25;;;;;;;5.90;5.17;;;20.30;99.90;;;;;;5103792;28;20469;-52
2022/04/23 09:09:52;;;;;;;5.23;4.73;;;20.50;99.90;;;;;;5101834;28;20777;-50
2022/04/23 09:12:19;;;;;;;5.60;5.10;;;20.30;99.90;;;;;;5104583;28;20427;-50
2022/04/23 09:14:48;;;;;;;5.60;5.10;;;20.40;99.90;;;;;;5101535;28;20450;-50
2022/04/23 09:25:40;;;;;;;5.30;4.80;;;20.50;99.90;;;;;;5097075;28;20458;-53
2022/04/23 09:28:22;;;;;;;6.07;4.93;;;20.50;99.90;;;;;;5092544;28;20506;-53
2022/04/23 09:30:54;;;;;;;6.77;4.80;;;20.40;99.90;;;;;;5092904;28;20469;-53
2022/04/23 09:33:28;;;;;;;6.00;5.10;;;20.30;99.90;;;;;;5096579;28;20489;-53
2022/04/23 09:35:54;;;;;;;5.23;4.73;;;19.80;99.90;;;;;;5102473;28;20416;-52
2022/04/23 09:38:19;;;;;;;5.43;4.93;;;19.70;99.90;;;;;;5100400;28;20453;-52
2022/04/23 09:40:51;;;;;;;6.23;5.60;;;19.70;99.90;;;;;;5094282;28;20411;-52
2022/04/23 09:43:24;;;;;;;8.67;7.17;;;19.70;99.90;;;;;;5095234;28;20192;-52
2022/04/23 09:45:58;;;;;;;6.67;5.50;;;19.60;99.90;;;;;;5111342;28;20414;-53
2022/04/23 09:48:24;;;;;;;9.63;6.00;;;19.40;99.90;;;;;;5096621;28;20414;-59
2022/04/23 09:50:51;;;;;;;5.80;4.80;;;19.00;99.90;;;;;;5104934;28;20452;-53
2022/04/23 09:53:18;;;;;;;6.10;5.50;;;19.00;99.90;;;;;;5111264;28;20247;-52
2022/04/23 09:55:45;;;;;;;7.90;5.37;;;19.10;99.90;;;;;;5106601;28;20426;-54
2022/04/23 09:58:13;;;;;;;6.43;5.83;;;19.00;99.90;;;;;;5094322;28;20430;-52
2022/04/23 10:00:44;;;;;;;5.90;5.40;;;18.90;99.90;;;;;;5111045;28;20782;-53
2022/04/23 10:03:11;;;;;;;9.27;5.60;;;18.80;99.90;;;;;;5090385;28;20836;-52
2022/04/23 10:05:41;;;;;;;5.50;5.00;;;18.80;99.90;;;;;;5100125;28;20441;-49
2022/04/23 10:08:12;;;;;;;6.77;4.90;;;18.90;99.90;;;;;;5091179;28;20430;-50
2022/04/23 10:11:03;;;;;;;6.50;5.80;;;19.10;99.90;;;;;;5093659;28;21187;-49
2022/04/23 10:13:30;;;;;;;6.27;5.77;;;18.80;99.90;;;;;;5074087;28;20462;-49
2022/04/23 10:15:58;;;;;;;6.17;5.57;;;18.90;99.90;;;;;;5110956;28;20390;-49
2022/04/23 10:18:24;;;;;;;5.83;5.23;;;19.20;99.90;;;;;;5110496;28;20473;-50
2022/04/23 10:21:01;;;;;;;5.27;4.77;;;19.60;99.90;;;;;;5110669;28;20410;-49
2022/04/23 10:23:33;;;;;;;6.80;5.07;;;19.60;99.90;;;;;;5111000;28;20196;-49
2022/04/23 10:26:29;;;;;;;5.97;5.37;;;19.60;99.90;;;;;;5110771;28;20397;-54
2022/04/23 10:28:56;;;;;;;6.60;5.43;;;19.80;99.90;;;;;;5102551;28;20848;-50
2022/04/23 10:31:21;;;;;;;6.17;5.13;;;20.00;99.90;;;;;;5110751;28;20406;-50
2022/04/23 10:33:54;;;;;;;5.53;5.03;;;19.70;99.90;;;;;;5110324;28;20488;-50
2022/04/23 10:36:21;;;;;;;5.20;4.77;;;19.90;99.90;;;;;;5110712;28;20184;-50
2022/04/23 10:38:51;;;;;;;5.97;5.30;;;20.20;99.90;;;;;;5110434;28;20898;-50
2022/04/23 10:41:23;;;;;;;6.27;5.67;;;20.40;99.90;;;;;;5110129;28;20406;-50
2022/04/23 10:43:51;;;;;;;6.23;5.63;;;20.30;99.90;;;;;;5110653;28;20903;-50
2022/04/23 10:46:42;;;;;;;6.57;5.27;;;20.70;99.90;;;;;;5110447;28;20509;-49
2022/04/23 10:49:17;;;;;;;6.27;5.30;;;21.20;99.90;;;;;;5110321;28;20518;-50
2022/04/23 10:51:53;;;;;;;6.77;5.50;;;20.80;99.90;;;;;;5110563;28;20760;-50
2022/04/23 10:54:21;;;;;;;6.40;5.80;;;20.10;99.90;;;;;;5110393;28;20442;-50
2022/04/23 10:56:53;;;;;;;6.43;5.20;;;19.40;99.90;;;;;;5104818;28;20423;-50
2022/04/23 10:59:39;;;;;;;5.80;5.30;;;18.90;99.90;;;;;;5090300;28;20772;-52
2022/04/23 11:02:13;;;;;;;7.80;5.50;;;18.70;99.90;;;;;;5090239;28;20415;-54
2022/04/23 11:12:14;;;;;;;7.20;6.07;;;19.20;99.90;;;;;;5089916;28;20426;-53
2022/04/23 11:13:35;;;;;;;7.03;5.40;;;21.60;99.90;;;;;;5109733;28;21001;-50
2022/04/23 11:16:11;;;;;;;5.33;4.90;;;22.00;99.90;;;;;;5110067;28;20399;-50
2022/04/23 11:18:37;;;;;;;8.93;5.60;;;22.80;99.90;;;;;;5109987;28;20223;-50
2022/04/23 11:21:19;;;;;;;6.43;5.80;;;23.30;99.90;;;;;;5109972;28;20422;-50
2022/04/23 11:23:45;;;;;;;6.27;5.67;;;23.00;99.90;;;;;;5110324;28;20486;-50
2022/04/23 11:26:22;;;;;;;5.93;5.43;;;21.80;99.90;;;;;;5110261;28;20453;-50
2022/04/23 11:28:58;;;;;;;6.77;5.63;;;21.70;99.90;;;;;;5110060;28;20405;-50
2022/04/23 11:31:25;;;;;;;6.23;5.63;;;22.20;99.90;;;;;;5110246;28;20828;-50
2022/04/23 11:33:52;;;;;;;8.70;5.63;;;22.40;99.90;;;;;;5109998;28;20872;-50
2022/04/23 11:36:19;;;;;;;6.10;5.50;;;22.00;99.90;;;;;;5110488;28;20956;-50
2022/04/23 11:38:45;;;;;;;6.50;5.77;;;22.60;99.90;;;;;;5111229;28;20394;-50
2022/04/23 11:41:11;;;;;;;5.80;5.20;;;23.10;99.90;;;;;;5108648;28;20423;-50
2022/04/23 11:43:39;;;;;;;5.80;5.30;;;22.60;99.90;;;;;;5093514;28;20187;-50
2022/04/23 11:46:07;;;;;;;6.07;5.47;;;22.40;99.90;;;;;;5093151;28;20246;-50
2022/04/23 11:48:39;;;;;;;6.83;6.13;;;21.50;99.90;;;;;;5093468;28;20872;-50
2022/04/23 11:51:06;;;;;;;6.33;5.77;;;21.30;99.90;;;;;;5093584;28;21225;-50
2022/04/23 11:53:53;;;;;;;6.90;6.20;;;21.20;99.90;;;;;;5093336;28;21191;-54
2022/04/23 11:56:36;;;;;;;6.30;5.70;;;20.60;99.90;;;;;;5093553;28;20797;-53
2022/04/23 11:59:06;;;;;;;6.67;6.07;;;20.80;99.90;;;;;;5092923;28;20486;-53
2022/04/23 12:01:32;;;;;;;6.63;6.03;;;20.80;99.90;;;;;;5093240;28;20383;-53
2022/04/23 12:03:59;;;;;;;7.97;6.63;;;21.30;99.90;;;;;;5092944;28;20985;-53
2022/04/23 12:06:25;;;;;;;6.27;5.67;;;21.90;99.90;;;;;;5093131;28;20231;-53
2022/04/23 12:09:03;;;;;;;20.10;5.90;;;22.50;99.90;;;;;;5093130;28;20415;-53
2022/04/23 12:11:28;;;;;;;6.27;5.50;;;23.00;99.90;;;;;;5096057;28;20871;-53
2022/04/23 12:13:54;;;;;;;6.83;6.17;;;23.60;99.90;;;;;;5113012;28;20526;-53
2022/04/23 12:16:33;;;;;;;6.90;6.30;;;23.60;99.90;;;;;;5112953;28;20188;-53
2022/04/23 12:19:10;;;;;;;9.90;5.63;;;23.20;99.90;;;;;;5112477;28;20468;-53
2022/04/23 12:21:37;;;;;;;6.67;5.97;;;23.40;99.90;;;;;;5112668;28;20441;-50
2022/04/23 12:24:04;;;;;;;6.50;5.77;;;23.80;99.90;;;;;;5113146;28;20414;-50
2022/04/23 12:26:37;;;;;;;6.00;5.20;;;23.70;99.90;;;;;;5113091;28;20426;-50
2022/04/23 12:43:18;;;;;;;9.17;6.37;;;23.40;99.90;;;;;;5102384;28;20491;-50
2022/04/23 12:45:43;;;;;;;14.43;9.70;;;23.40;99.90;;;;;;5111712;28;20480;-50
2022/04/23 12:48:09;;;;;;;11.73;9.43;;;23.10;99.90;;;;;;5111864;28;20410;-50
2022/04/23 12:50:34;;;;;;;13.83;9.53;;;22.50;99.90;;;;;;5110972;28;20703;-50
2022/04/23 12:53:00;;;;;;;11.40;8.63;;;21.80;99.90;;;;;;5110090;28;20176;-51
2022/04/23 12:55:32;;;;;;;12.03;9.53;;;22.00;99.90;;;;;;5108648;28;20180;-50
2022/04/23 12:58:00;;;;;;;10.40;9.40;;;21.90;99.90;;;;;;5100026;28;20188;-50
2022/04/23 13:00:26;;;;;;;12.10;10.30;;;21.70;99.90;;;;;;5108773;28;20430;-50
2022/04/23 13:02:56;;;;;;;12.57;9.63;;;21.20;99.90;;;;;;5111732;28;21174;-50
2022/04/23 13:05:22;;;;;;;10.90;9.80;;;20.40;99.90;;;;;;5110658;28;20391;-50
2022/04/23 13:10:32;;;;;;;11.43;9.40;;;20.40;99.90;;;;;;5091857;28;20184;-50
2022/04/23 13:12:59;;;;;;;10.50;9.13;;;20.80;99.90;;;;;;5103080;28;20426;-50
2022/04/23 13:15:26;;;;;;;20.20;12.87;;;21.00;99.90;;;;;;5096186;28;20427;-50
2022/04/23 13:17:51;;;;;;;14.47;11.00;;;21.50;99.90;;;;;;5100463;28;20490;-50
2022/04/23 13:20:19;;;;;;;12.07;9.30;;;22.40;99.90;;;;;;5103432;28;20858;-50
2022/04/23 13:22:45;;;;;;;11.67;10.40;;;22.70;99.90;;;;;;5110753;28;20580;-50
2022/04/23 13:25:14;;;;;;;11.30;8.80;;;22.40;99.90;;;;;;5090114;28;20840;-50